createdAt,value
2022-08-31T00:01:14.778Z,9.53
2022-08-31T00:04:00.941Z,7.75
2022-08-31T00:06:33.213Z,9.30
2022-08-31T00:11:34.858Z,8.58
2022-08-31T00:14:07.362Z,6.03
2022-08-31T00:16:41.514Z,8.80
2022-08-31T00:21:39.881Z,8.60
2022-08-31T00:24:10.000Z,7.85
2022-08-31T00:26:40.957Z,9.05
2022-08-31T00:29:11.298Z,9.13
2022-08-31T00:31:41.324Z,8.25
2022-08-31T00:34:10.946Z,7.90
2022-08-31T00:36:41.580Z,5.55
2022-08-31T00:39:11.663Z,11.57
2022-08-31T00:41:43.982Z,6.55
2022-08-31T00:44:15.225Z,7.40
2022-08-31T00:46:46.450Z,12.10
2022-08-31T00:49:21.809Z,5.70
2022-08-31T00:52:03.521Z,8.58
2022-08-31T00:54:36.056Z,8.55
2022-08-31T00:57:08.313Z,7.65
2022-08-31T00:59:40.139Z,6.80
2022-08-31T01:02:10.619Z,7.60
2022-08-31T01:04:41.990Z,8.07
2022-08-31T01:07:12.183Z,10.38
2022-08-31T01:09:52.710Z,10.68
2022-08-31T01:12:16.054Z,14.47
2022-08-31T01:14:45.947Z,14.20
2022-08-31T01:17:17.669Z,8.55
2022-08-31T01:19:56.270Z,11.43
2022-08-31T01:22:31.638Z,10.10
2022-08-31T01:25:03.748Z,10.18
2022-08-31T01:27:36.746Z,9.75
2022-08-31T01:30:10.511Z,10.03
2022-08-31T01:32:41.038Z,7.80
2022-08-31T01:35:11.480Z,10.20
2022-08-31T01:37:41.568Z,11.35
2022-08-31T01:40:12.655Z,14.98
2022-08-31T01:42:42.198Z,9.63
2022-08-31T01:45:12.752Z,9.33
2022-08-31T01:47:42.374Z,7.00
2022-08-31T01:50:11.899Z,6.33
2022-08-31T01:52:41.414Z,7.30
2022-08-31T01:55:12.304Z,4.97
2022-08-31T01:57:41.744Z,6.00
2022-08-31T02:00:19.025Z,5.08
2022-08-31T02:02:48.627Z,4.37
2022-08-31T02:05:18.300Z,7.90
2022-08-31T02:07:48.655Z,6.75
2022-08-31T02:10:18.405Z,10.13
2022-08-31T02:12:47.843Z,7.55
2022-08-31T02:15:19.515Z,7.78
2022-08-31T02:17:52.831Z,5.42
2022-08-31T02:20:21.984Z,5.97
2022-08-31T02:22:53.689Z,4.57
2022-08-31T02:25:48.843Z,5.58
2022-08-31T02:28:19.281Z,7.53
2022-08-31T02:30:49.705Z,4.15
2022-08-31T02:33:19.740Z,7.72
2022-08-31T02:35:50.336Z,6.97
2022-08-31T02:38:23.916Z,5.07
2022-08-31T02:40:54.136Z,3.87
2022-08-31T02:43:24.795Z,7.03
2022-08-31T02:48:26.823Z,3.70
2022-08-31T02:50:58.180Z,6.90
2022-08-31T02:53:29.337Z,5.65
2022-08-31T02:55:58.933Z,4.92
2022-08-31T02:58:29.083Z,7.85
2022-08-31T03:00:59.433Z,6.03
2022-08-31T03:03:29.576Z,5.15
2022-08-31T03:05:59.173Z,7.73
2022-08-31T03:08:29.652Z,5.80
2022-08-31T03:11:01.161Z,7.47
2022-08-31T03:13:30.991Z,7.45
2022-08-31T03:16:00.549Z,4.70
2022-08-31T03:18:30.135Z,6.92
2022-08-31T03:20:59.652Z,7.35
2022-08-31T03:23:29.183Z,7.28
2022-08-31T03:25:58.749Z,6.63
2022-08-31T03:28:28.635Z,5.17
2022-08-31T03:31:00.258Z,5.65
2022-08-31T03:33:29.888Z,8.15
2022-08-31T03:35:59.389Z,6.85
2022-08-31T03:38:29.097Z,6.35
2022-08-31T03:40:58.703Z,4.08
2022-08-31T03:43:28.459Z,7.28
2022-08-31T03:45:57.985Z,8.40
2022-08-31T03:48:27.984Z,7.83
2022-08-31T03:50:57.956Z,6.73
2022-08-31T03:53:29.032Z,8.43
2022-08-31T03:56:00.544Z,8.43
2022-08-31T03:58:31.995Z,7.37
2022-08-31T04:01:02.157Z,10.88
2022-08-31T04:03:33.377Z,10.70
2022-08-31T04:06:14.890Z,7.53
2022-08-31T04:08:46.102Z,9.30
2022-08-31T04:11:44.668Z,10.00
2022-08-31T04:14:24.990Z,9.15
2022-08-31T04:17:13.864Z,12.03
2022-08-31T04:19:45.117Z,9.93
2022-08-31T04:22:19.043Z,8.93
2022-08-31T04:24:50.260Z,7.85
2022-08-31T04:27:19.791Z,8.95
2022-08-31T04:29:49.375Z,9.75
2022-08-31T04:32:19.990Z,11.38
2022-08-31T04:34:53.634Z,7.05
2022-08-31T04:37:20.802Z,9.18
2022-08-31T04:39:52.484Z,11.10
2022-08-31T04:42:22.176Z,10.48
2022-08-31T04:44:52.059Z,12.10
2022-08-31T04:47:21.659Z,10.10
2022-08-31T04:49:51.275Z,6.35
2022-08-31T04:52:23.881Z,11.55
2022-08-31T04:54:52.186Z,13.20
2022-08-31T04:57:21.793Z,8.63
2022-08-31T04:59:51.364Z,12.07
2022-08-31T05:05:06.484Z,9.00
2022-08-31T05:07:37.742Z,15.10
2022-08-31T05:10:08.051Z,13.55
2022-08-31T05:12:37.657Z,10.63
2022-08-31T05:15:08.061Z,10.63
2022-08-31T05:17:37.615Z,12.50
2022-08-31T05:20:07.446Z,11.83
2022-08-31T05:22:37.123Z,18.15
2022-08-31T05:25:07.782Z,12.70
2022-08-31T05:27:38.246Z,11.10
2022-08-31T05:30:08.319Z,12.73
2022-08-31T05:32:45.784Z,14.25
2022-08-31T05:35:16.871Z,14.07
2022-08-31T05:37:48.347Z,12.10
2022-08-31T05:40:18.068Z,12.65
2022-08-31T05:42:47.713Z,13.43
2022-08-31T05:45:18.997Z,14.33
2022-08-31T05:47:49.015Z,14.63
2022-08-31T05:50:19.303Z,14.03
2022-08-31T05:52:48.840Z,17.15
2022-08-31T05:55:19.605Z,14.93
2022-08-31T05:57:49.158Z,16.55
2022-08-31T06:00:18.895Z,17.65
2022-08-31T06:02:53.335Z,18.20
2022-08-31T06:05:21.157Z,18.02
2022-08-31T06:07:51.881Z,17.92
2022-08-31T06:10:22.156Z,21.05
2022-08-31T06:12:52.269Z,18.50
2022-08-31T06:15:21.909Z,18.30
2022-08-31T06:17:53.044Z,17.30
2022-08-31T06:20:22.946Z,19.90
2022-08-31T06:22:52.593Z,22.60
2022-08-31T06:25:27.060Z,19.92
2022-08-31T06:27:56.626Z,21.03
2022-08-31T06:30:27.596Z,16.55
2022-08-31T06:32:58.990Z,28.67
2022-08-31T06:35:30.871Z,33.90
2022-08-31T06:38:02.121Z,22.25
2022-08-31T06:40:36.043Z,20.88
2022-08-31T06:43:14.212Z,17.40
2022-08-31T06:45:57.439Z,22.75
2022-08-31T06:48:38.215Z,18.50
2022-08-31T06:51:09.832Z,21.07
2022-08-31T06:56:21.072Z,19.05
2022-08-31T06:59:08.614Z,20.02
2022-08-31T07:01:44.905Z,25.23
2022-08-31T07:04:22.102Z,24.70
2022-08-31T07:06:51.789Z,22.85
2022-08-31T07:09:22.050Z,22.42
2022-08-31T07:11:53.766Z,22.17
2022-08-31T07:14:25.951Z,25.97
2022-08-31T07:16:58.618Z,23.90
2022-08-31T07:19:28.760Z,20.50
2022-08-31T07:22:01.158Z,22.07
2022-08-31T07:24:35.350Z,20.35
2022-08-31T07:27:13.284Z,26.10
2022-08-31T07:29:47.888Z,26.62
2022-08-31T07:32:18.515Z,21.05
2022-08-31T07:34:56.296Z,21.87
2022-08-31T07:37:48.381Z,23.05
2022-08-31T07:40:36.240Z,22.20
2022-08-31T07:43:06.728Z,19.95
2022-08-31T07:45:39.223Z,19.70
2022-08-31T07:48:14.219Z,25.77
2022-08-31T07:50:57.631Z,24.90
2022-08-31T07:53:47.263Z,20.97
2022-08-31T07:56:35.091Z,20.62
2022-08-31T07:59:14.317Z,22.17
2022-08-31T08:01:45.849Z,25.43
2022-08-31T08:04:19.962Z,19.37
2022-08-31T08:07:05.026Z,22.98
2022-08-31T08:09:54.232Z,20.77
2022-08-31T08:12:28.742Z,18.02
2022-08-31T08:15:18.575Z,18.23
2022-08-31T08:18:03.430Z,16.30
2022-08-31T08:20:38.861Z,15.63
2022-08-31T08:23:15.695Z,15.85
2022-08-31T08:25:48.713Z,15.32
2022-08-31T08:28:38.657Z,17.30
2022-08-31T08:30:55.696Z,21.17
2022-08-31T08:33:25.604Z,15.10
2022-08-31T08:36:01.137Z,21.20
2022-08-31T08:38:32.504Z,17.07
2022-08-31T08:43:39.611Z,13.48
2022-08-31T08:46:33.588Z,18.07
2022-08-31T08:48:46.089Z,18.35
2022-08-31T08:51:20.779Z,15.26
2022-08-31T08:53:55.123Z,16.73
2022-08-31T08:56:33.400Z,14.68
2022-08-31T08:58:58.398Z,13.78
2022-08-31T09:01:30.567Z,11.90
2022-08-31T09:04:10.419Z,13.00
2022-08-31T09:06:54.737Z,14.10
2022-08-31T09:09:41.317Z,12.05
2022-08-31T09:12:42.900Z,15.55
2022-08-31T09:15:39.404Z,14.87
2022-08-31T09:18:37.463Z,17.82
2022-08-31T09:21:28.245Z,15.55
2022-08-31T09:24:04.483Z,13.00
2022-08-31T09:27:20.957Z,12.63
2022-08-31T09:29:59.715Z,12.47
2022-08-31T09:32:32.419Z,9.25
2022-08-31T09:37:49.065Z,12.90
2022-08-31T09:40:25.958Z,12.20
2022-08-31T09:43:25.911Z,9.33
2022-08-31T09:46:16.589Z,12.88
2022-08-31T09:48:58.485Z,10.88
2022-08-31T09:51:34.427Z,8.60
2022-08-31T09:54:36.595Z,14.23
2022-08-31T09:57:09.233Z,13.03
2022-08-31T09:59:43.655Z,9.58
2022-08-31T10:02:26.588Z,9.73
2022-08-31T10:05:07.935Z,12.93
2022-08-31T10:07:42.229Z,12.98
2022-08-31T10:10:30.476Z,12.97
2022-08-31T10:13:03.852Z,7.80
2022-08-31T10:15:54.749Z,10.80
2022-08-31T10:18:37.926Z,8.70
2022-08-31T10:21:13.279Z,10.35
2022-08-31T10:23:47.527Z,9.78
2022-08-31T10:26:20.043Z,11.45
2022-08-31T10:28:59.322Z,12.73
2022-08-31T10:31:39.534Z,8.75
2022-08-31T10:34:30.110Z,11.50
2022-08-31T10:37:07.142Z,10.13
2022-08-31T10:39:45.957Z,9.70
2022-08-31T10:42:32.165Z,11.33
2022-08-31T10:45:18.241Z,8.50
2022-08-31T10:47:49.530Z,10.27
2022-08-31T10:50:38.752Z,11.65
2022-08-31T10:53:17.587Z,6.67
2022-08-31T10:56:07.791Z,7.30
2022-08-31T10:58:46.287Z,11.75
2022-08-31T11:01:24.564Z,7.03
2022-08-31T11:04:22.606Z,12.53
2022-08-31T11:06:55.381Z,10.90
2022-08-31T11:09:29.690Z,6.85
2022-08-31T11:12:06.626Z,11.57
2022-08-31T11:14:57.419Z,12.15
2022-08-31T11:17:32.908Z,9.58
2022-08-31T11:20:14.225Z,12.23
2022-08-31T11:23:03.446Z,8.48
2022-08-31T11:25:35.956Z,14.20
2022-08-31T11:28:09.282Z,11.12
2022-08-31T11:30:43.489Z,10.88
2022-08-31T11:33:20.434Z,11.70
2022-08-31T11:35:55.216Z,7.40
2022-08-31T11:38:45.955Z,13.18
2022-08-31T11:41:36.684Z,11.28
2022-08-31T11:44:09.284Z,14.47
2022-08-31T11:46:44.269Z,11.68
2022-08-31T11:49:20.020Z,12.23
2022-08-31T11:51:54.222Z,13.08
2022-08-31T11:54:31.049Z,11.55
2022-08-31T11:57:02.739Z,13.75
2022-08-31T11:59:39.181Z,15.53
2022-08-31T12:02:24.047Z,12.68
2022-08-31T12:05:04.474Z,12.40
2022-08-31T12:07:44.105Z,12.85
2022-08-31T12:10:27.533Z,13.15
2022-08-31T12:13:23.266Z,11.43
2022-08-31T12:16:05.006Z,11.80
2022-08-31T12:18:46.328Z,19.85
2022-08-31T12:21:42.587Z,17.60
2022-08-31T12:24:33.188Z,9.80
2022-08-31T12:27:19.280Z,14.75
2022-08-31T12:29:50.129Z,12.73
2022-08-31T12:32:37.975Z,12.50
2022-08-31T12:35:25.294Z,15.55
2022-08-31T12:38:06.248Z,13.15
2022-08-31T12:40:38.821Z,13.98
2022-08-31T12:43:23.378Z,11.03
2022-08-31T12:46:04.329Z,11.88
2022-08-31T12:48:42.610Z,10.15
2022-08-31T12:51:20.855Z,14.58
2022-08-31T12:54:05.154Z,10.90
2022-08-31T12:56:58.590Z,11.20
2022-08-31T13:00:02.216Z,18.95
2022-08-31T13:02:35.932Z,14.87
2022-08-31T13:05:07.696Z,9.58
2022-08-31T13:07:37.337Z,10.63
2022-08-31T13:10:13.268Z,10.30
2022-08-31T13:12:48.841Z,13.08
2022-08-31T13:15:25.201Z,15.15
2022-08-31T13:17:57.454Z,8.48
2022-08-31T13:20:30.023Z,11.80
2022-08-31T13:23:02.570Z,11.73
2022-08-31T13:25:36.703Z,10.70
2022-08-31T13:28:10.822Z,14.23
2022-08-31T13:30:42.150Z,11.50
2022-08-31T13:33:25.175Z,8.80
2022-08-31T13:35:57.804Z,10.20
2022-08-31T13:38:29.065Z,14.68
2022-08-31T13:40:58.582Z,10.88
2022-08-31T13:43:29.090Z,9.05
2022-08-31T13:45:58.789Z,8.40
2022-08-31T13:48:38.946Z,13.40
2022-08-31T13:51:13.121Z,10.60
2022-08-31T13:53:46.672Z,10.35
2022-08-31T13:56:52.089Z,11.57
2022-08-31T13:59:25.237Z,8.40
2022-08-31T14:02:09.099Z,7.42
2022-08-31T14:04:52.276Z,8.93
2022-08-31T14:07:24.705Z,8.55
2022-08-31T14:10:21.690Z,13.95
2022-08-31T14:12:57.068Z,9.15
2022-08-31T14:15:53.672Z,9.13
2022-08-31T14:18:30.153Z,9.30
2022-08-31T14:21:26.932Z,10.37
2022-08-31T14:23:48.245Z,11.50
2022-08-31T14:26:21.974Z,10.15
2022-08-31T14:28:56.402Z,9.40
2022-08-31T14:31:52.646Z,10.43
2022-08-31T14:34:34.276Z,7.72
2022-08-31T14:37:13.843Z,7.65
2022-08-31T14:39:50.241Z,8.28
2022-08-31T14:42:28.658Z,9.40
2022-08-31T14:45:04.121Z,10.13
2022-08-31T14:47:37.271Z,9.10
2022-08-31T14:50:07.175Z,8.23
2022-08-31T14:52:39.044Z,8.50
2022-08-31T14:55:11.453Z,8.37
2022-08-31T14:57:45.761Z,7.65
2022-08-31T15:00:18.774Z,9.70
2022-08-31T15:02:50.221Z,6.97
2022-08-31T15:05:23.994Z,9.23
2022-08-31T15:07:55.455Z,7.20
2022-08-31T15:10:27.881Z,6.55
2022-08-31T15:12:57.314Z,9.70
2022-08-31T15:15:26.814Z,8.08
2022-08-31T15:17:57.570Z,7.43
2022-08-31T15:20:27.397Z,9.98
2022-08-31T15:22:56.852Z,7.50
2022-08-31T15:25:26.289Z,8.95
2022-08-31T15:27:56.361Z,7.95
2022-08-31T15:30:25.858Z,8.88
2022-08-31T15:33:00.326Z,7.73
2022-08-31T15:35:31.405Z,8.85
2022-08-31T15:38:03.603Z,8.08
2022-08-31T15:40:38.980Z,11.85
2022-08-31T15:43:12.698Z,8.30
2022-08-31T15:45:42.400Z,7.22
2022-08-31T15:48:29.848Z,8.58
2022-08-31T15:51:01.164Z,8.90
2022-08-31T15:53:32.527Z,8.25
2022-08-31T15:56:06.676Z,8.48
2022-08-31T15:58:41.552Z,7.08
2022-08-31T16:01:17.324Z,9.40
2022-08-31T16:03:52.764Z,6.87
2022-08-31T16:06:26.648Z,10.40
2022-08-31T16:09:01.066Z,9.18
2022-08-31T16:11:37.013Z,8.45
2022-08-31T16:14:08.458Z,11.75
2022-08-31T16:16:41.410Z,8.30
2022-08-31T16:19:27.758Z,11.00
2022-08-31T16:21:48.164Z,9.28
2022-08-31T16:24:23.780Z,8.70
2022-08-31T16:26:55.933Z,6.58
2022-08-31T16:29:28.933Z,6.53
2022-08-31T16:31:58.591Z,8.40
2022-08-31T16:34:29.141Z,9.88
2022-08-31T16:37:00.332Z,10.15
2022-08-31T16:39:29.758Z,8.73
2022-08-31T16:41:59.248Z,8.80
2022-08-31T16:44:30.181Z,9.05
2022-08-31T16:47:01.825Z,6.80
2022-08-31T16:49:34.028Z,9.00
2022-08-31T16:52:06.788Z,8.40
2022-08-31T16:54:37.766Z,6.67
2022-08-31T16:57:07.396Z,7.85
2022-08-31T16:59:38.010Z,5.78
2022-08-31T17:02:10.915Z,8.25
2022-08-31T17:04:58.081Z,7.45
2022-08-31T17:07:17.307Z,8.88
2022-08-31T17:09:47.045Z,7.50
2022-08-31T17:12:19.369Z,6.72
2022-08-31T17:14:52.846Z,5.33
2022-08-31T17:17:27.734Z,6.87
2022-08-31T17:20:00.141Z,8.53
2022-08-31T17:22:33.185Z,7.10
2022-08-31T17:25:04.903Z,7.43
2022-08-31T17:27:37.337Z,4.42
2022-08-31T17:30:09.095Z,6.70
2022-08-31T17:32:44.697Z,5.75
2022-08-31T17:35:11.926Z,6.55
2022-08-31T17:37:42.567Z,5.80
2022-08-31T17:40:14.250Z,5.37
2022-08-31T17:42:44.656Z,7.33
2022-08-31T17:45:15.961Z,4.10
2022-08-31T17:47:45.404Z,4.67
2022-08-31T17:50:16.575Z,4.62
2022-08-31T17:52:47.769Z,5.70
2022-08-31T17:55:18.313Z,6.87
2022-08-31T17:57:49.541Z,10.03
2022-08-31T18:00:19.198Z,5.75
2022-08-31T18:02:49.846Z,5.95
2022-08-31T18:05:19.566Z,6.50
2022-08-31T18:07:50.917Z,7.45
2022-08-31T18:10:20.505Z,8.88
2022-08-31T18:12:50.022Z,5.55
2022-08-31T18:15:20.502Z,5.62
2022-08-31T18:17:50.002Z,8.03
2022-08-31T18:20:19.506Z,6.45
2022-08-31T18:22:52.422Z,5.55
2022-08-31T18:25:21.394Z,4.33
2022-08-31T18:27:52.505Z,6.90
2022-08-31T18:30:23.730Z,8.83
2022-08-31T18:32:53.207Z,7.05
2022-08-31T18:35:24.352Z,6.47
2022-08-31T18:37:53.882Z,8.25
2022-08-31T18:40:41.845Z,7.55
2022-08-31T18:43:29.545Z,8.08
2022-08-31T18:45:59.009Z,8.55
2022-08-31T18:48:28.538Z,6.22
2022-08-31T18:50:59.834Z,5.95
2022-08-31T18:53:32.651Z,5.83
2022-08-31T18:56:12.342Z,7.97
2022-08-31T18:58:43.193Z,7.30
2022-08-31T19:01:14.758Z,5.35
2022-08-31T19:03:46.178Z,7.80
2022-08-31T19:06:20.891Z,7.47
2022-08-31T19:08:52.698Z,7.08
2022-08-31T19:11:23.617Z,7.80
2022-08-31T19:13:54.524Z,9.98
2022-08-31T19:16:27.406Z,7.08
2022-08-31T19:18:59.292Z,7.75
2022-08-31T19:21:31.808Z,9.47
2022-08-31T19:24:05.153Z,9.15
2022-08-31T19:26:40.713Z,6.53
2022-08-31T19:29:14.352Z,7.17
2022-08-31T19:31:46.998Z,9.13
2022-08-31T19:34:22.715Z,6.40
2022-08-31T19:36:55.398Z,7.25
2022-08-31T19:39:27.774Z,8.78
2022-08-31T19:44:54.455Z,8.58
2022-08-31T19:47:06.781Z,8.67
2022-08-31T19:49:38.790Z,9.18
2022-08-31T19:52:10.114Z,8.43
2022-08-31T19:54:39.559Z,9.25
2022-08-31T19:57:11.476Z,9.67
2022-08-31T19:59:40.907Z,10.13
2022-08-31T20:02:12.546Z,8.58
2022-08-31T20:04:42.472Z,10.53
2022-08-31T20:07:13.609Z,8.70
2022-08-31T20:09:43.490Z,8.30
2022-08-31T20:12:13.017Z,9.03
2022-08-31T20:14:44.339Z,6.87
2022-08-31T20:17:15.682Z,9.13
2022-08-31T20:19:46.845Z,9.35
2022-08-31T20:22:16.651Z,8.30
2022-08-31T20:24:46.255Z,7.42
2022-08-31T20:27:18.547Z,8.57
2022-08-31T20:29:48.894Z,10.13
2022-08-31T20:32:21.031Z,6.22
2022-08-31T20:34:51.204Z,8.03
2022-08-31T20:37:20.669Z,8.50
2022-08-31T20:39:50.362Z,8.98
2022-08-31T20:42:21.538Z,10.00
2022-08-31T20:44:51.076Z,8.40
2022-08-31T20:47:42.020Z,7.40
2022-08-31T20:50:11.751Z,6.07
2022-08-31T20:52:41.414Z,7.78
2022-08-31T20:55:14.349Z,8.70
2022-08-31T20:57:43.977Z,8.35
2022-08-31T21:00:16.534Z,8.78
2022-08-31T21:02:47.089Z,10.20
2022-08-31T21:07:49.738Z,10.50
2022-08-31T21:10:22.322Z,12.55
2022-08-31T21:12:55.054Z,6.70
2022-08-31T21:15:25.937Z,10.67
2022-08-31T21:18:00.502Z,8.45
2022-08-31T21:20:31.781Z,8.53
2022-08-31T21:23:01.491Z,10.63
2022-08-31T21:25:31.488Z,9.05
2022-08-31T21:28:02.403Z,7.67
2022-08-31T21:30:31.913Z,8.88
2022-08-31T21:33:01.552Z,6.78
2022-08-31T21:35:32.713Z,13.35
2022-08-31T21:38:03.133Z,10.48
2022-08-31T21:40:32.828Z,10.78
2022-08-31T21:43:02.736Z,11.10
2022-08-31T21:45:32.338Z,9.13
2022-08-31T21:48:03.538Z,7.53
2022-08-31T21:50:33.172Z,8.35
2022-08-31T21:53:02.876Z,7.90
2022-08-31T21:55:34.827Z,8.75
2022-08-31T21:58:04.485Z,12.40
2022-08-31T22:00:35.735Z,10.15
2022-08-31T22:03:05.365Z,11.03
2022-08-31T22:05:41.717Z,11.10
2022-08-31T22:08:12.331Z,8.78
2022-08-31T22:10:44.757Z,13.48
2022-08-31T22:13:16.314Z,11.50
2022-08-31T22:15:47.498Z,8.33
2022-08-31T22:18:59.259Z,13.22
2022-08-31T22:20:50.120Z,7.08
2022-08-31T22:23:22.645Z,10.08
2022-08-31T22:25:52.295Z,11.33
2022-08-31T22:28:22.597Z,11.63
2022-08-31T22:30:53.680Z,9.83
2022-08-31T22:33:23.293Z,9.93
2022-08-31T22:35:52.923Z,13.75
2022-08-31T22:38:22.545Z,10.80
2022-08-31T22:40:53.436Z,11.97
2022-08-31T22:43:24.219Z,8.88
2022-08-31T22:45:56.047Z,11.75
2022-08-31T22:48:25.975Z,13.48
2022-08-31T22:50:55.424Z,12.25
2022-08-31T22:53:24.960Z,12.58
2022-08-31T22:55:54.408Z,10.85
2022-08-31T22:58:23.878Z,12.23
2022-08-31T23:00:53.421Z,11.57
2022-08-31T23:03:23.461Z,11.90
2022-08-31T23:05:55.060Z,11.88
2022-08-31T23:08:24.521Z,10.08
2022-08-31T23:10:54.660Z,9.10
2022-08-31T23:13:25.739Z,9.78
2022-08-31T23:15:55.349Z,11.28
2022-08-31T23:18:24.766Z,12.13
2022-08-31T23:20:54.777Z,10.20
2022-08-31T23:23:24.452Z,11.00
2022-08-31T23:25:57.670Z,14.17
2022-08-31T23:28:27.123Z,10.80
2022-08-31T23:30:57.785Z,11.93
2022-08-31T23:33:29.404Z,10.53
2022-08-31T23:36:00.592Z,12.82
2022-08-31T23:38:35.397Z,10.20
2022-08-31T23:41:05.391Z,11.18
2022-08-31T23:43:38.149Z,8.53
2022-08-31T23:46:09.389Z,8.65
2022-08-31T23:48:38.929Z,12.07
2022-08-31T23:51:10.803Z,12.60
2022-08-31T23:53:40.314Z,14.68
2022-08-31T23:56:12.051Z,18.35
2022-08-31T23:58:46.385Z,12.35
